createdAt,value
2023-03-06T00:01:09.623Z,78.49
2023-03-06T00:03:37.529Z,78.68
2023-03-06T00:06:05.551Z,77.95
2023-03-06T00:08:33.376Z,78.18
2023-03-06T00:11:01.177Z,78.29
2023-03-06T00:13:30.639Z,78.45
2023-03-06T00:16:01.233Z,77.97
2023-03-06T00:18:29.213Z,78.34
2023-03-06T00:20:56.999Z,78.57
2023-03-06T00:23:24.756Z,78.56
2023-03-06T00:25:52.540Z,78.49
2023-03-06T00:28:20.304Z,78.45
2023-03-06T00:30:48.827Z,77.72
2023-03-06T00:33:18.030Z,78.44
2023-03-06T00:35:45.940Z,78.29
2023-03-06T00:38:13.860Z,78.44
2023-03-06T00:40:41.688Z,78.42
2023-03-06T00:43:09.549Z,78.44
2023-03-06T00:45:37.648Z,77.88
2023-03-06T00:48:06.327Z,77.76
2023-03-06T00:50:36.224Z,78.49
2023-03-06T00:53:04.029Z,77.64
2023-03-06T00:55:33.520Z,78.71
2023-03-06T00:58:01.399Z,78.01
2023-03-06T01:00:29.478Z,78.17
2023-03-06T01:02:57.274Z,78.33
2023-03-06T01:05:25.217Z,78.32
2023-03-06T01:07:54.349Z,77.75
2023-03-06T01:10:22.500Z,78.12
2023-03-06T01:12:50.414Z,78.21
2023-03-06T01:15:19.409Z,77.97
2023-03-06T01:17:47.939Z,78.47
2023-03-06T01:20:18.677Z,77.83
2023-03-06T01:22:46.733Z,77.87
2023-03-06T01:25:15.858Z,78.60
2023-03-06T01:27:43.965Z,78.51
2023-03-06T01:30:13.177Z,77.91
2023-03-06T01:32:41.118Z,78.02
2023-03-06T01:35:09.946Z,78.35
2023-03-06T01:37:38.957Z,77.70
2023-03-06T01:40:09.511Z,78.41
2023-03-06T01:42:38.736Z,78.28
2023-03-06T01:45:09.306Z,77.67
2023-03-06T01:47:37.847Z,77.71
2023-03-06T01:50:09.652Z,78.27
2023-03-06T01:52:43.470Z,77.99
2023-03-06T01:55:15.481Z,78.14
2023-03-06T01:57:47.820Z,77.99
2023-03-06T02:00:18.608Z,77.87
2023-03-06T02:02:51.135Z,78.43
2023-03-06T02:05:19.054Z,78.37
2023-03-06T02:07:48.066Z,78.05
2023-03-06T02:10:16.916Z,78.39
2023-03-06T02:12:47.828Z,78.04
2023-03-06T02:15:18.612Z,78.23
2023-03-06T02:17:48.774Z,77.75
2023-03-06T02:20:26.209Z,78.33
2023-03-06T02:23:01.117Z,78.31
2023-03-06T02:25:36.743Z,78.19
2023-03-06T02:28:06.181Z,78.59
2023-03-06T02:30:34.455Z,78.13
2023-03-06T02:33:02.787Z,78.53
2023-03-06T02:35:33.072Z,78.02
2023-03-06T02:38:05.569Z,78.50
2023-03-06T02:40:35.267Z,78.17
2023-03-06T02:43:03.175Z,77.99
2023-03-06T02:45:37.661Z,78.57
2023-03-06T02:48:06.153Z,78.17
2023-03-06T02:50:34.275Z,78.23
2023-03-06T02:53:02.288Z,78.12
2023-03-06T02:55:31.999Z,78.07
2023-03-06T02:58:01.966Z,77.94
2023-03-06T03:00:31.720Z,78.43
2023-03-06T03:03:02.202Z,77.95
2023-03-06T03:05:31.464Z,78.08
2023-03-06T03:08:06.581Z,77.83
2023-03-06T03:10:34.898Z,78.59
2023-03-06T03:13:04.222Z,78.60
2023-03-06T03:15:33.436Z,78.42
2023-03-06T03:18:01.461Z,78.07
2023-03-06T03:20:29.181Z,78.67
2023-03-06T03:22:57.283Z,78.45
2023-03-06T03:25:26.572Z,78.36
2023-03-06T03:27:57.237Z,77.85
2023-03-06T03:30:26.490Z,78.10
2023-03-06T03:32:54.729Z,78.70
2023-03-06T03:35:22.711Z,78.60
2023-03-06T03:37:52.520Z,78.66
2023-03-06T03:40:20.420Z,78.75
2023-03-06T03:42:51.487Z,78.44
2023-03-06T03:45:20.592Z,78.49
2023-03-06T03:47:49.770Z,78.64
2023-03-06T03:50:17.920Z,78.69
2023-03-06T03:52:45.847Z,78.41
2023-03-06T03:55:14.033Z,78.66
2023-03-06T03:57:43.151Z,78.36
2023-03-06T04:00:16.332Z,78.37
2023-03-06T04:03:06.258Z,78.89
2023-03-06T04:05:38.451Z,78.18
2023-03-06T04:08:08.264Z,78.51
2023-03-06T04:10:39.603Z,78.94
2023-03-06T04:13:10.199Z,78.50
2023-03-06T04:15:42.572Z,78.44
2023-03-06T04:18:12.890Z,78.66
2023-03-06T04:20:41.425Z,78.62
2023-03-06T04:23:09.344Z,78.36
2023-03-06T04:25:38.676Z,78.44
2023-03-06T04:28:09.869Z,78.99
2023-03-06T04:30:37.708Z,78.93
2023-03-06T04:33:06.129Z,78.58
2023-03-06T04:35:35.348Z,78.46
2023-03-06T04:38:08.162Z,79.18
2023-03-06T04:40:37.316Z,78.81
2023-03-06T04:43:06.179Z,78.57
2023-03-06T04:45:34.351Z,78.67
2023-03-06T04:48:02.476Z,79.00
2023-03-06T04:50:32.591Z,78.59
2023-03-06T04:53:03.553Z,78.30
2023-03-06T04:55:31.812Z,78.57
2023-03-06T04:57:59.965Z,78.78
2023-03-06T05:00:31.383Z,78.49
2023-03-06T05:03:00.701Z,78.73
2023-03-06T05:05:28.951Z,79.09
2023-03-06T05:07:56.881Z,79.24
2023-03-06T05:10:26.102Z,79.21
2023-03-06T05:12:53.996Z,79.26
2023-03-06T05:15:22.173Z,79.22
2023-03-06T05:17:50.024Z,78.78
2023-03-06T05:20:18.377Z,79.09
2023-03-06T05:22:46.379Z,79.00
2023-03-06T05:25:14.334Z,78.75
2023-03-06T05:27:43.963Z,78.76
2023-03-06T05:30:14.622Z,78.98
2023-03-06T05:32:42.835Z,78.61
2023-03-06T05:35:17.962Z,78.83
2023-03-06T05:37:45.968Z,78.81
2023-03-06T05:40:14.837Z,78.91
2023-03-06T05:42:43.984Z,79.08
2023-03-06T05:45:12.934Z,79.23
2023-03-06T05:47:40.698Z,79.37
2023-03-06T05:50:10.497Z,79.19
2023-03-06T05:52:39.445Z,79.28
2023-03-06T05:55:08.775Z,79.33
2023-03-06T05:57:36.612Z,79.02
2023-03-06T06:00:07.291Z,79.18
2023-03-06T06:02:40.689Z,79.00
2023-03-06T06:05:11.789Z,78.83
2023-03-06T06:07:40.741Z,79.63
2023-03-06T06:10:09.526Z,79.58
2023-03-06T06:12:37.348Z,79.16
2023-03-06T06:15:08.109Z,79.10
2023-03-06T06:17:35.996Z,79.33
2023-03-06T06:20:04.617Z,79.53
2023-03-06T06:22:32.412Z,79.29
2023-03-06T06:25:00.372Z,79.69
2023-03-06T06:27:28.188Z,79.62
2023-03-06T06:29:56.039Z,79.77
2023-03-06T06:32:25.245Z,80.04
2023-03-06T06:34:53.190Z,79.65
2023-03-06T06:37:20.959Z,79.37
2023-03-06T06:39:48.758Z,79.98
2023-03-06T06:42:39.022Z,79.10
2023-03-06T06:45:05.858Z,79.60
2023-03-06T06:47:37.027Z,79.75
2023-03-06T06:50:05.395Z,79.57
2023-03-06T06:52:33.342Z,79.58
2023-03-06T06:55:01.122Z,79.52
2023-03-06T06:57:28.897Z,80.22
2023-03-06T06:59:56.698Z,79.92
2023-03-06T07:02:24.516Z,79.78
2023-03-06T07:05:03.619Z,79.97
2023-03-06T07:07:34.224Z,80.05
2023-03-06T07:10:02.416Z,80.06
2023-03-06T07:12:32.407Z,80.11
2023-03-06T07:15:00.297Z,79.55
2023-03-06T07:17:28.078Z,79.79
2023-03-06T07:19:57.234Z,80.05
2023-03-06T07:22:25.142Z,79.67
2023-03-06T07:24:52.947Z,80.02
2023-03-06T07:27:22.879Z,79.98
2023-03-06T07:29:50.628Z,80.04
2023-03-06T07:32:18.934Z,79.72
2023-03-06T07:34:46.741Z,79.86
2023-03-06T07:37:15.976Z,80.50
2023-03-06T07:39:43.813Z,80.77
2023-03-06T07:42:14.060Z,80.31
2023-03-06T07:44:48.786Z,80.19
2023-03-06T07:47:16.729Z,80.31
2023-03-06T07:49:44.467Z,80.46
2023-03-06T07:52:12.753Z,80.37
2023-03-06T07:54:42.053Z,80.29
2023-03-06T07:57:09.950Z,80.43
2023-03-06T07:59:37.794Z,80.89
2023-03-06T08:02:05.664Z,80.24
2023-03-06T08:04:34.049Z,80.87
2023-03-06T08:07:03.415Z,80.07
2023-03-06T08:09:31.686Z,80.18
2023-03-06T08:12:01.325Z,81.05
2023-03-06T08:14:29.216Z,80.21
2023-03-06T08:16:57.309Z,80.51
2023-03-06T08:19:25.019Z,81.05
2023-03-06T08:21:52.917Z,81.20
2023-03-06T08:24:20.928Z,80.45
2023-03-06T08:26:48.825Z,80.83
2023-03-06T08:29:18.006Z,80.29
2023-03-06T08:31:48.563Z,80.65
2023-03-06T08:34:18.853Z,80.34
2023-03-06T08:36:46.991Z,81.00
2023-03-06T08:39:15.174Z,80.97
2023-03-06T08:41:43.280Z,80.32
2023-03-06T08:44:11.689Z,80.53
2023-03-06T08:46:41.036Z,81.06
2023-03-06T08:49:08.801Z,80.75
2023-03-06T08:51:36.908Z,81.43
2023-03-06T08:54:05.250Z,80.65
2023-03-06T08:56:34.966Z,81.33
2023-03-06T08:59:05.526Z,80.75
2023-03-06T09:01:36.547Z,81.10
2023-03-06T09:04:08.355Z,81.02
2023-03-06T09:06:38.636Z,81.67
2023-03-06T09:09:07.833Z,80.67
2023-03-06T09:11:35.721Z,81.35
2023-03-06T09:14:03.918Z,80.90
2023-03-06T09:16:31.732Z,81.54
2023-03-06T09:18:59.614Z,81.67
2023-03-06T09:21:28.864Z,81.62
2023-03-06T09:23:57.020Z,81.46
2023-03-06T09:26:39.699Z,81.32
2023-03-06T09:29:13.009Z,81.25
2023-03-06T09:31:40.834Z,81.38
2023-03-06T09:34:08.824Z,81.54
2023-03-06T09:36:53.286Z,81.50
2023-03-06T09:39:23.075Z,81.15
2023-03-06T09:41:51.959Z,81.33
2023-03-06T09:44:21.862Z,81.52
2023-03-06T09:47:04.067Z,81.12
2023-03-06T09:50:04.935Z,81.21
2023-03-06T09:52:43.440Z,81.06
2023-03-06T09:55:14.188Z,81.29
2023-03-06T09:57:46.295Z,81.17
2023-03-06T10:00:17.635Z,81.83
2023-03-06T10:02:48.838Z,82.10
2023-03-06T10:05:20.803Z,81.88
2023-03-06T10:07:54.086Z,81.65
2023-03-06T10:10:25.583Z,81.19
2023-03-06T10:13:03.316Z,81.86
2023-03-06T10:15:36.189Z,81.77
2023-03-06T10:18:05.703Z,81.43
2023-03-06T10:20:38.341Z,81.62
2023-03-06T10:23:26.405Z,81.56
2023-03-06T10:26:00.990Z,81.83
2023-03-06T10:28:35.530Z,82.02
2023-03-06T10:31:10.682Z,81.43
2023-03-06T10:33:48.716Z,81.72
2023-03-06T10:36:18.660Z,81.37
2023-03-06T10:38:48.891Z,81.54
2023-03-06T10:41:29.043Z,81.64
2023-03-06T10:44:20.718Z,81.55
2023-03-06T10:46:51.541Z,81.64
2023-03-06T10:49:32.517Z,81.80
2023-03-06T10:52:04.014Z,82.30
2023-03-06T10:54:35.095Z,82.03
2023-03-06T10:57:20.989Z,81.97
2023-03-06T10:59:54.465Z,81.68
2023-03-06T11:02:27.750Z,81.97
2023-03-06T11:04:57.136Z,81.63
2023-03-06T11:07:26.129Z,81.55
2023-03-06T11:10:05.871Z,81.54
2023-03-06T11:12:35.441Z,81.80
2023-03-06T11:15:10.391Z,81.96
2023-03-06T11:17:48.852Z,81.46
2023-03-06T11:20:18.710Z,81.60
2023-03-06T11:22:50.784Z,82.01
2023-03-06T11:25:23.670Z,81.31
2023-03-06T11:27:56.924Z,81.40
2023-03-06T11:30:27.456Z,81.66
2023-03-06T11:33:00.120Z,81.85
2023-03-06T11:35:29.954Z,82.13
2023-03-06T11:38:01.720Z,81.58
2023-03-06T11:40:34.733Z,81.97
2023-03-06T11:43:14.534Z,81.83
2023-03-06T11:45:47.204Z,81.77
2023-03-06T11:48:24.468Z,81.58
2023-03-06T11:50:54.416Z,81.68
2023-03-06T11:53:28.186Z,81.69
2023-03-06T11:56:04.715Z,82.15
2023-03-06T11:58:54.617Z,81.81
2023-03-06T12:01:28.447Z,81.54
2023-03-06T12:04:32.031Z,81.92
2023-03-06T12:07:09.275Z,81.54
2023-03-06T12:09:46.242Z,81.64
2023-03-06T12:12:26.048Z,81.57
2023-03-06T12:15:25.349Z,81.44
2023-03-06T12:18:02.654Z,81.77
2023-03-06T12:20:46.797Z,81.93
2023-03-06T12:23:31.033Z,81.48
2023-03-06T12:26:05.038Z,81.80
2023-03-06T12:28:47.034Z,81.78
2023-03-06T12:31:38.325Z,81.29
2023-03-06T12:34:18.514Z,81.54
2023-03-06T12:36:54.937Z,81.51
2023-03-06T12:39:30.870Z,81.79
2023-03-06T12:42:22.989Z,81.46
2023-03-06T12:45:23.454Z,81.84
2023-03-06T12:47:56.572Z,81.65
2023-03-06T12:50:27.701Z,81.35
2023-03-06T12:52:57.805Z,81.21
2023-03-06T12:55:26.172Z,81.84
2023-03-06T12:57:54.173Z,81.74
2023-03-06T13:01:06.033Z,81.33
2023-03-06T13:03:45.733Z,81.95
2023-03-06T13:06:30.892Z,81.02
2023-03-06T13:09:08.312Z,81.34
2023-03-06T13:12:23.771Z,81.67
2023-03-06T13:14:57.208Z,81.13
2023-03-06T13:17:33.192Z,81.53
2023-03-06T13:20:29.146Z,82.04
2023-03-06T13:22:57.843Z,81.27
2023-03-06T13:25:47.769Z,81.16
2023-03-06T13:28:27.382Z,81.88
2023-03-06T13:30:56.001Z,81.77
2023-03-06T13:33:54.820Z,81.35
2023-03-06T13:36:28.290Z,81.23
2023-03-06T13:39:09.665Z,81.62
2023-03-06T13:41:56.336Z,81.05
2023-03-06T13:44:50.905Z,81.14
2023-03-06T13:48:10.698Z,81.48
2023-03-06T13:50:41.349Z,81.03
2023-03-06T13:53:56.333Z,81.56
2023-03-06T13:56:55.498Z,81.50
2023-03-06T13:59:39.467Z,81.48
2023-03-06T14:02:29.913Z,81.32
2023-03-06T14:04:59.626Z,81.41
2023-03-06T14:07:30.484Z,81.74
2023-03-06T14:10:10.460Z,81.65
2023-03-06T14:12:41.587Z,81.43
2023-03-06T14:15:19.062Z,81.02
2023-03-06T14:17:57.382Z,81.71
2023-03-06T14:20:33.109Z,81.07
2023-03-06T14:23:24.543Z,81.16
2023-03-06T14:26:01.205Z,81.31
2023-03-06T14:28:31.909Z,81.45
2023-03-06T14:31:02.120Z,81.75
2023-03-06T14:33:39.826Z,81.20
2023-03-06T14:36:08.838Z,81.83
2023-03-06T14:38:44.884Z,81.50
2023-03-06T14:41:14.149Z,81.43
2023-03-06T14:43:42.036Z,81.67
2023-03-06T14:46:20.781Z,81.53
2023-03-06T14:48:50.146Z,81.31
2023-03-06T14:51:20.229Z,81.35
2023-03-06T14:53:51.249Z,81.81
2023-03-06T15:03:00.662Z,81.98
2023-03-06T15:05:30.558Z,81.66
2023-03-06T15:08:03.636Z,81.42
2023-03-06T15:10:35.746Z,81.65
2023-03-06T15:13:11.795Z,81.77
2023-03-06T15:15:39.681Z,82.24
2023-03-06T15:18:29.915Z,82.04
2023-03-06T15:21:08.734Z,81.96
2023-03-06T15:23:38.246Z,82.29
2023-03-06T15:26:22.287Z,82.07
2023-03-06T15:29:08.182Z,82.06
2023-03-06T15:31:38.399Z,81.55
2023-03-06T15:34:23.720Z,81.95
2023-03-06T15:36:56.453Z,82.30
2023-03-06T15:39:28.255Z,81.35
2023-03-06T15:41:59.895Z,81.55
2023-03-06T15:44:30.134Z,82.02
2023-03-06T15:47:08.558Z,82.01
2023-03-06T15:49:38.094Z,82.06
2023-03-06T15:52:06.062Z,81.68
2023-03-06T15:54:33.885Z,82.23
2023-03-06T15:57:05.275Z,81.52
2023-03-06T15:59:44.180Z,81.67
2023-03-06T16:02:17.208Z,81.47
2023-03-06T16:04:45.412Z,81.55
2023-03-06T16:07:13.524Z,81.75
2023-03-06T16:09:41.681Z,81.62
2023-03-06T16:12:17.625Z,81.90
2023-03-06T16:14:45.853Z,81.63
2023-03-06T16:17:14.057Z,82.33
2023-03-06T16:19:42.100Z,81.90
2023-03-06T16:22:09.921Z,81.25
2023-03-06T16:24:37.710Z,81.74
2023-03-06T16:27:06.997Z,82.03
2023-03-06T16:29:36.324Z,81.33
2023-03-06T16:32:04.640Z,81.59
2023-03-06T16:34:32.525Z,81.77
2023-03-06T16:37:00.358Z,82.00
2023-03-06T16:39:28.241Z,82.04
2023-03-06T16:41:56.412Z,81.66
2023-03-06T16:44:24.192Z,82.09
2023-03-06T16:46:53.507Z,81.75
2023-03-06T16:49:23.196Z,81.34
2023-03-06T16:51:51.914Z,82.18
2023-03-06T16:54:20.212Z,81.88
2023-03-06T16:56:48.122Z,81.77
2023-03-06T16:59:15.971Z,82.00
2023-03-06T17:01:43.877Z,81.40
2023-03-06T17:04:13.212Z,82.12
2023-03-06T17:06:41.881Z,81.88
2023-03-06T17:09:10.790Z,81.85
2023-03-06T17:11:39.509Z,81.80
2023-03-06T17:14:07.392Z,81.51
2023-03-06T17:16:36.970Z,81.12
2023-03-06T17:19:04.954Z,81.66
2023-03-06T17:21:35.408Z,81.73
2023-03-06T17:24:03.823Z,82.02
2023-03-06T17:26:31.940Z,81.38
2023-03-06T17:28:59.857Z,81.55
2023-03-06T17:31:28.924Z,82.00
2023-03-06T17:34:00.420Z,81.63
2023-03-06T17:36:28.753Z,81.43
2023-03-06T17:38:59.209Z,81.20
2023-03-06T17:41:27.450Z,81.51
2023-03-06T17:43:57.770Z,81.60
2023-03-06T17:46:26.566Z,81.80
2023-03-06T17:48:54.549Z,81.25
2023-03-06T17:51:22.464Z,82.00
2023-03-06T17:53:52.172Z,81.91
2023-03-06T17:56:21.421Z,81.22
2023-03-06T17:58:49.203Z,81.78
2023-03-06T18:01:19.268Z,81.40
2023-03-06T18:03:49.374Z,81.22
2023-03-06T18:06:17.950Z,81.98
2023-03-06T18:08:45.979Z,82.09
2023-03-06T18:11:14.735Z,82.20
2023-03-06T18:13:46.370Z,81.56
2023-03-06T18:16:16.257Z,81.42
2023-03-06T18:18:44.206Z,81.98
2023-03-06T18:21:14.318Z,81.33
2023-03-06T18:23:42.385Z,81.57
2023-03-06T18:26:12.421Z,81.73
2023-03-06T18:28:42.505Z,81.46
2023-03-06T18:31:17.190Z,81.50
2023-03-06T18:33:45.178Z,81.31
2023-03-06T18:36:12.931Z,81.57
2023-03-06T18:38:43.957Z,81.69
2023-03-06T18:41:13.008Z,81.88
2023-03-06T18:43:44.049Z,81.42
2023-03-06T18:46:12.585Z,81.63
2023-03-06T18:48:41.804Z,81.66
2023-03-06T18:51:13.979Z,82.00
2023-03-06T18:53:42.340Z,82.04
2023-03-06T18:56:11.127Z,81.42
2023-03-06T18:58:38.924Z,81.76
2023-03-06T19:01:07.825Z,81.60
2023-03-06T19:03:35.724Z,81.62
2023-03-06T19:06:08.655Z,81.57
2023-03-06T19:08:38.488Z,81.78
2023-03-06T19:11:08.519Z,82.12
2023-03-06T19:13:36.448Z,81.82
2023-03-06T19:16:05.643Z,81.66
2023-03-06T19:18:33.979Z,81.47
2023-03-06T19:21:10.994Z,82.01
2023-03-06T19:23:39.488Z,81.51
2023-03-06T19:26:08.451Z,81.87
2023-03-06T19:28:37.802Z,81.69
2023-03-06T19:31:10.937Z,81.83
2023-03-06T19:33:39.095Z,82.21
2023-03-06T19:36:10.204Z,81.98
2023-03-06T19:38:37.992Z,81.84
2023-03-06T19:41:06.526Z,81.93
2023-03-06T19:43:34.453Z,81.91
2023-03-06T19:46:02.339Z,82.02
2023-03-06T19:48:30.261Z,81.82
2023-03-06T19:50:58.115Z,81.67
2023-03-06T19:53:28.297Z,81.83
2023-03-06T19:56:04.057Z,81.51
2023-03-06T19:58:31.968Z,82.17
2023-03-06T20:01:05.142Z,81.85
2023-03-06T20:03:33.048Z,82.00
2023-03-06T20:06:00.974Z,81.89
2023-03-06T20:08:30.184Z,81.97
2023-03-06T20:10:58.032Z,81.81
2023-03-06T20:13:25.848Z,82.08
2023-03-06T20:15:53.657Z,82.08
2023-03-06T20:18:21.588Z,82.10
2023-03-06T20:20:58.248Z,82.21
2023-03-06T20:23:26.181Z,82.05
2023-03-06T20:25:55.392Z,82.09
2023-03-06T20:28:23.800Z,82.15
2023-03-06T20:30:51.585Z,81.84
2023-03-06T20:33:22.141Z,82.14
2023-03-06T20:35:50.096Z,82.11
2023-03-06T20:38:17.975Z,82.05
2023-03-06T20:40:45.836Z,82.14
2023-03-06T20:43:15.132Z,82.20
2023-03-06T20:45:42.988Z,82.17
2023-03-06T20:48:10.784Z,82.13
2023-03-06T20:50:38.694Z,82.20
2023-03-06T20:53:06.438Z,82.14
2023-03-06T20:55:37.485Z,82.36
2023-03-06T20:58:05.333Z,82.18
2023-03-06T21:00:34.622Z,82.24
2023-03-06T21:03:02.364Z,82.34
2023-03-06T21:05:30.172Z,82.23
2023-03-06T21:07:58.030Z,82.24
2023-03-06T21:10:25.842Z,82.12
2023-03-06T21:12:53.632Z,82.12
2023-03-06T21:15:21.628Z,82.43
2023-03-06T21:17:50.767Z,82.24
2023-03-06T21:20:18.704Z,82.21
2023-03-06T21:22:46.522Z,82.83
2023-03-06T21:25:14.903Z,82.41
2023-03-06T21:27:42.656Z,82.29
2023-03-06T21:30:11.842Z,82.20
2023-03-06T21:32:39.653Z,82.43
2023-03-06T21:35:09.379Z,82.37
2023-03-06T21:37:37.273Z,82.47
2023-03-06T21:40:06.639Z,82.47
2023-03-06T21:42:36.105Z,82.38
2023-03-06T21:45:04.076Z,82.69
2023-03-06T21:47:37.670Z,82.44
2023-03-06T21:50:06.170Z,82.34
2023-03-06T21:52:35.347Z,82.01
2023-03-06T21:55:03.151Z,82.05
2023-03-06T21:57:31.122Z,82.68
2023-03-06T21:59:58.885Z,82.72
2023-03-06T22:02:26.768Z,82.37
2023-03-06T22:04:54.779Z,82.64
2023-03-06T22:07:22.925Z,82.27
2023-03-06T22:09:54.249Z,82.77
2023-03-06T22:12:22.372Z,82.26
2023-03-06T22:14:50.206Z,82.36
2023-03-06T22:21:26.634Z,82.95
2023-03-06T22:23:57.225Z,82.60
2023-03-06T22:26:27.438Z,82.59
2023-03-06T22:28:55.500Z,82.46
2023-03-06T22:31:25.838Z,82.71
2023-03-06T22:33:54.397Z,82.63
2023-03-06T22:36:23.050Z,82.51
2023-03-06T22:38:55.648Z,82.40
2023-03-06T22:41:23.577Z,82.42
2023-03-06T22:43:53.620Z,82.57
2023-03-06T22:46:21.531Z,82.66
2023-03-06T22:48:49.443Z,82.44
2023-03-06T22:51:19.544Z,82.41
2023-03-06T22:53:48.119Z,83.18
2023-03-06T22:56:18.484Z,82.97
2023-03-06T22:58:46.366Z,82.89
2023-03-06T23:01:17.102Z,82.62
2023-03-06T23:06:37.550Z,82.24
2023-03-06T23:09:07.856Z,83.15
2023-03-06T23:11:54.089Z,82.71
2023-03-06T23:14:40.471Z,82.54
2023-03-06T23:17:26.710Z,82.55
2023-03-06T23:20:14.577Z,82.50
2023-03-06T23:23:02.352Z,83.04
2023-03-06T23:25:42.718Z,82.68
2023-03-06T23:28:10.799Z,82.94
2023-03-06T23:30:39.546Z,82.54
2023-03-06T23:33:07.420Z,83.22
2023-03-06T23:35:35.812Z,82.63
2023-03-06T23:38:04.953Z,82.78
2023-03-06T23:40:34.807Z,82.73
2023-03-06T23:43:02.729Z,83.02
2023-03-06T23:45:30.537Z,83.28
2023-03-06T23:47:58.917Z,82.63
2023-03-06T23:50:27.066Z,83.21
2023-03-06T23:52:55.505Z,82.74
2023-03-06T23:55:24.580Z,82.96
2023-03-06T23:57:52.350Z,82.78
